createdAt,value
2022-07-26T00:00:39.260Z,99.53
2022-07-26T00:01:39.389Z,99.38
2022-07-26T00:02:39.250Z,98.67
2022-07-26T00:03:40.190Z,98.77
2022-07-26T00:04:39.167Z,98.87
2022-07-26T00:05:39.165Z,98.67
2022-07-26T00:06:39.177Z,98.57
2022-07-26T00:07:39.139Z,99.42
2022-07-26T00:08:39.320Z,99.32
2022-07-26T00:09:39.320Z,98.92
2022-07-26T00:10:39.335Z,99.12
2022-07-26T00:11:39.285Z,99.32
2022-07-26T00:12:39.336Z,98.41
2022-07-26T00:13:39.341Z,98.51
2022-07-26T00:14:39.258Z,97.91
2022-07-26T00:15:39.211Z,98.31
2022-07-26T00:16:39.305Z,97.60
2022-07-26T00:17:39.216Z,97.60
2022-07-26T00:18:39.049Z,97.85
2022-07-26T00:19:39.060Z,98.01
2022-07-26T00:20:39.029Z,97.85
2022-07-26T00:21:40.663Z,97.65
2022-07-26T00:22:39.029Z,96.94
2022-07-26T00:23:39.019Z,97.85
2022-07-26T00:24:39.003Z,96.94
2022-07-26T00:25:38.995Z,97.34
2022-07-26T00:26:39.024Z,97.75
2022-07-26T00:27:38.981Z,97.45
2022-07-26T00:28:38.966Z,97.65
2022-07-26T00:29:38.947Z,98.16
2022-07-26T00:30:39.949Z,98.05
2022-07-26T00:31:39.033Z,98.36
2022-07-26T00:32:38.926Z,99.67
2022-07-26T00:33:38.930Z,99.99
2022-07-26T00:34:38.919Z,99.99
2022-07-26T00:35:38.912Z,99.99
2022-07-26T00:36:41.868Z,99.99
2022-07-26T00:37:38.894Z,99.99
2022-07-26T00:38:38.886Z,99.99
2022-07-26T00:39:38.883Z,99.99
2022-07-26T00:40:38.872Z,99.99
2022-07-26T00:41:38.887Z,99.99
2022-07-26T00:42:38.856Z,99.99
2022-07-26T00:43:38.845Z,99.99
2022-07-26T00:44:38.840Z,99.99
2022-07-26T00:45:38.921Z,99.99
2022-07-26T00:46:38.899Z,99.99
2022-07-26T00:47:38.816Z,99.99
2022-07-26T00:48:38.862Z,99.99
2022-07-26T00:49:38.805Z,99.99
2022-07-26T00:50:38.788Z,99.99
2022-07-26T00:51:38.808Z,99.99
2022-07-26T00:52:38.788Z,99.99
2022-07-26T00:53:38.764Z,99.99
2022-07-26T00:54:38.758Z,99.99
2022-07-26T00:55:38.756Z,99.99
2022-07-26T00:56:38.782Z,99.99
2022-07-26T00:57:38.737Z,99.99
2022-07-26T00:58:38.733Z,99.99
2022-07-26T00:59:38.717Z,99.99
2022-07-26T01:00:38.712Z,99.99
2022-07-26T01:01:38.850Z,99.99
2022-07-26T01:02:38.738Z,99.99
2022-07-26T01:03:39.853Z,99.99
2022-07-26T01:04:38.678Z,99.99
2022-07-26T01:05:38.669Z,99.99
2022-07-26T01:06:38.696Z,99.99
2022-07-26T01:07:38.645Z,99.99
2022-07-26T01:08:38.636Z,99.99
2022-07-26T01:09:38.638Z,99.99
2022-07-26T01:10:38.623Z,99.99
2022-07-26T01:11:38.645Z,99.99
2022-07-26T01:12:38.613Z,99.99
2022-07-26T01:13:38.605Z,99.99
2022-07-26T01:14:38.591Z,99.99
2022-07-26T01:15:38.613Z,99.99
2022-07-26T01:16:38.722Z,99.99
2022-07-26T01:17:38.666Z,99.99
2022-07-26T01:18:38.575Z,99.99
2022-07-26T01:19:38.572Z,99.99
2022-07-26T01:20:38.539Z,99.99
2022-07-26T01:21:38.559Z,99.99
2022-07-26T01:22:38.535Z,99.99
2022-07-26T01:23:38.517Z,99.99
2022-07-26T01:24:38.515Z,99.99
2022-07-26T01:25:42.396Z,99.99
2022-07-26T01:26:39.529Z,99.99
2022-07-26T01:27:38.486Z,99.99
2022-07-26T01:28:38.472Z,99.99
2022-07-26T01:29:38.468Z,99.99
2022-07-26T01:30:38.465Z,99.99
2022-07-26T01:31:38.546Z,99.99
2022-07-26T01:32:38.779Z,99.99
2022-07-26T01:33:38.445Z,99.99
2022-07-26T01:34:38.427Z,99.99
2022-07-26T01:35:38.419Z,99.99
2022-07-26T01:36:38.440Z,99.99
2022-07-26T01:37:38.406Z,99.99
2022-07-26T01:38:38.395Z,99.99
2022-07-26T01:39:38.383Z,99.99
2022-07-26T01:40:38.373Z,99.99
2022-07-26T01:41:38.618Z,99.99
2022-07-26T01:42:38.365Z,99.99
2022-07-26T01:43:38.347Z,99.99
2022-07-26T01:44:38.348Z,99.99
2022-07-26T01:45:38.360Z,99.99
2022-07-26T01:46:38.361Z,99.99
2022-07-26T01:47:38.326Z,99.56
2022-07-26T01:48:38.356Z,99.26
2022-07-26T01:49:38.301Z,99.46
2022-07-26T01:50:38.296Z,98.65
2022-07-26T01:51:38.310Z,98.71
2022-07-26T01:52:38.276Z,99.99
2022-07-26T01:53:38.268Z,99.99
2022-07-26T01:54:39.263Z,99.99
2022-07-26T01:55:38.255Z,99.99
2022-07-26T01:56:38.275Z,99.99
2022-07-26T01:57:38.238Z,99.99
2022-07-26T01:58:38.242Z,99.99
2022-07-26T01:59:38.213Z,99.99
2022-07-26T02:00:38.208Z,99.99
2022-07-26T02:01:40.195Z,99.99
2022-07-26T02:02:38.329Z,99.99
2022-07-26T02:03:38.187Z,99.99
2022-07-26T02:04:38.190Z,99.99
2022-07-26T02:05:38.157Z,99.99
2022-07-26T02:06:38.157Z,99.99
2022-07-26T02:07:38.191Z,99.99
2022-07-26T02:08:38.149Z,99.99
2022-07-26T02:09:39.768Z,99.99
2022-07-26T02:10:38.130Z,99.99
2022-07-26T02:11:38.117Z,99.99
2022-07-26T02:12:38.137Z,99.99
2022-07-26T02:13:38.099Z,99.99
2022-07-26T02:14:38.092Z,99.99
2022-07-26T02:15:38.177Z,99.99
2022-07-26T02:16:38.077Z,99.99
2022-07-26T02:17:38.096Z,99.99
2022-07-26T02:18:38.053Z,99.99
2022-07-26T02:19:38.053Z,99.99
2022-07-26T02:20:38.039Z,99.99
2022-07-26T02:21:38.032Z,99.99
2022-07-26T02:22:38.062Z,99.99
2022-07-26T02:23:41.646Z,99.99
2022-07-26T02:24:38.006Z,99.99
2022-07-26T02:25:38.001Z,99.99
2022-07-26T02:26:37.995Z,99.99
2022-07-26T02:27:38.017Z,99.99
2022-07-26T02:28:37.996Z,99.99
2022-07-26T02:29:37.971Z,99.99
2022-07-26T02:30:37.965Z,99.99
2022-07-26T02:31:38.010Z,99.99
2022-07-26T02:32:37.977Z,99.99
2022-07-26T02:33:37.943Z,99.99
2022-07-26T02:34:37.928Z,99.99
2022-07-26T02:35:37.923Z,99.99
2022-07-26T02:36:37.921Z,99.99
2022-07-26T02:37:43.904Z,99.99
2022-07-26T02:38:38.910Z,99.99
2022-07-26T02:39:37.888Z,99.99
2022-07-26T02:40:37.884Z,99.99
2022-07-26T02:41:37.896Z,99.99
2022-07-26T02:42:37.896Z,99.99
2022-07-26T02:43:37.858Z,99.99
2022-07-26T02:44:37.847Z,99.99
2022-07-26T02:45:37.839Z,99.99
2022-07-26T02:46:37.882Z,99.99
2022-07-26T02:47:37.855Z,99.99
2022-07-26T02:48:37.838Z,99.99
2022-07-26T02:49:37.807Z,99.99
2022-07-26T02:50:37.803Z,99.99
2022-07-26T02:51:37.792Z,99.99
2022-07-26T02:52:37.816Z,99.99
2022-07-26T02:53:37.774Z,99.99
2022-07-26T02:54:37.766Z,99.99
2022-07-26T02:55:37.767Z,99.99
2022-07-26T02:56:37.776Z,99.99
2022-07-26T02:57:46.578Z,99.99
2022-07-26T02:58:38.739Z,99.99
2022-07-26T02:59:37.733Z,99.99
2022-07-26T03:00:37.723Z,99.99
2022-07-26T03:01:37.746Z,99.99
2022-07-26T03:02:37.792Z,99.99
2022-07-26T03:03:38.299Z,99.99
2022-07-26T03:04:37.684Z,99.99
2022-07-26T03:05:37.674Z,99.99
2022-07-26T03:06:37.671Z,99.99
2022-07-26T03:07:37.684Z,99.99
2022-07-26T03:08:37.653Z,99.99
2022-07-26T03:09:37.648Z,99.99
2022-07-26T03:10:37.640Z,99.99
2022-07-26T03:11:37.625Z,99.99
2022-07-26T03:12:37.646Z,99.99
2022-07-26T03:13:37.614Z,99.99
2022-07-26T03:14:37.600Z,99.99
2022-07-26T03:15:37.651Z,99.99
2022-07-26T03:16:37.611Z,99.99
2022-07-26T03:17:37.609Z,99.99
2022-07-26T03:18:37.583Z,99.99
2022-07-26T03:19:37.563Z,99.99
2022-07-26T03:20:37.573Z,99.99
2022-07-26T03:21:37.552Z,99.99
2022-07-26T03:22:37.581Z,99.99
2022-07-26T03:23:37.538Z,99.99
2022-07-26T03:24:37.530Z,99.99
2022-07-26T03:25:37.748Z,99.99
2022-07-26T03:26:37.515Z,99.99
2022-07-26T03:27:37.612Z,99.99
2022-07-26T03:28:37.492Z,99.99
2022-07-26T03:29:37.489Z,99.99
2022-07-26T03:30:37.482Z,99.99
2022-07-26T03:31:37.530Z,99.99
2022-07-26T03:32:37.494Z,99.99
2022-07-26T03:33:37.457Z,99.99
2022-07-26T03:34:37.449Z,99.99
2022-07-26T03:35:37.436Z,99.99
2022-07-26T03:36:37.432Z,99.99
2022-07-26T03:37:44.822Z,99.99
2022-07-26T03:38:38.409Z,99.99
2022-07-26T03:39:37.408Z,99.99
2022-07-26T03:40:37.393Z,99.99
2022-07-26T03:41:37.388Z,99.99
2022-07-26T03:42:37.412Z,99.99
2022-07-26T03:43:37.365Z,99.99
2022-07-26T03:44:37.366Z,99.99
2022-07-26T03:45:37.357Z,99.99
2022-07-26T03:46:37.378Z,99.99
2022-07-26T03:47:37.435Z,99.99
2022-07-26T03:48:37.374Z,99.99
2022-07-26T03:49:37.325Z,99.99
2022-07-26T03:50:37.328Z,99.99
2022-07-26T03:51:37.308Z,99.99
2022-07-26T03:52:37.332Z,99.99
2022-07-26T03:53:37.294Z,99.99
2022-07-26T03:54:37.277Z,99.99
2022-07-26T03:55:37.272Z,99.99
2022-07-26T03:56:37.265Z,99.99
2022-07-26T03:57:37.281Z,99.99
2022-07-26T03:58:37.394Z,99.99
2022-07-26T03:59:37.243Z,99.99
2022-07-26T04:00:37.230Z,99.99
2022-07-26T04:01:37.276Z,99.99
2022-07-26T04:02:37.292Z,99.99
2022-07-26T04:03:37.206Z,99.99
2022-07-26T04:04:37.201Z,99.99
2022-07-26T04:05:37.184Z,99.99
2022-07-26T04:06:37.182Z,99.99
2022-07-26T04:07:37.203Z,99.99
2022-07-26T04:08:37.170Z,99.99
2022-07-26T04:09:37.161Z,99.99
2022-07-26T04:10:37.150Z,99.99
2022-07-26T04:11:37.149Z,99.99
2022-07-26T04:12:37.179Z,99.99
2022-07-26T04:13:37.147Z,99.99
2022-07-26T04:14:37.122Z,99.99
2022-07-26T04:15:37.109Z,99.99
2022-07-26T04:16:42.935Z,99.99
2022-07-26T04:17:39.118Z,99.99
2022-07-26T04:18:37.082Z,99.99
2022-07-26T04:19:37.443Z,99.99
2022-07-26T04:20:37.063Z,99.99
2022-07-26T04:21:37.064Z,99.99
2022-07-26T04:22:37.116Z,99.99
2022-07-26T04:23:37.048Z,99.99
2022-07-26T04:24:37.036Z,99.99
2022-07-26T04:25:40.878Z,99.99
2022-07-26T04:26:37.017Z,99.99
2022-07-26T04:27:37.010Z,99.99
2022-07-26T04:28:37.029Z,99.99
2022-07-26T04:29:36.992Z,99.99
2022-07-26T04:30:37.059Z,99.99
2022-07-26T04:31:36.996Z,99.99
2022-07-26T04:32:36.968Z,99.99
2022-07-26T04:33:36.993Z,99.97
2022-07-26T04:34:36.971Z,99.87
2022-07-26T04:35:36.954Z,99.97
2022-07-26T04:36:36.938Z,99.52
2022-07-26T04:37:36.925Z,99.26
2022-07-26T04:38:36.960Z,99.52
2022-07-26T04:39:36.913Z,99.21
2022-07-26T04:40:40.658Z,99.32
2022-07-26T04:41:36.892Z,99.47
2022-07-26T04:42:37.810Z,99.99
2022-07-26T04:43:36.909Z,99.99
2022-07-26T04:44:36.875Z,99.93
2022-07-26T04:45:36.942Z,98.32
2022-07-26T04:46:36.892Z,96.91
2022-07-26T04:47:36.853Z,95.85
2022-07-26T04:48:36.894Z,95.61
2022-07-26T04:49:36.831Z,94.00
2022-07-26T04:50:36.845Z,93.26
2022-07-26T04:51:36.812Z,92.10
2022-07-26T04:52:36.811Z,90.95
2022-07-26T04:53:36.820Z,90.69
2022-07-26T04:54:36.800Z,89.84
2022-07-26T04:55:36.784Z,89.95
2022-07-26T04:56:36.772Z,89.90
2022-07-26T04:57:36.762Z,89.90
2022-07-26T04:58:36.806Z,89.75
2022-07-26T04:59:36.744Z,89.86
2022-07-26T05:00:56.499Z,88.05
2022-07-26T05:01:38.762Z,87.60
2022-07-26T05:02:36.778Z,87.16
2022-07-26T05:03:36.747Z,86.80
2022-07-26T05:04:36.698Z,86.46
2022-07-26T05:05:36.696Z,88.01
2022-07-26T05:06:36.694Z,87.87
2022-07-26T05:07:36.705Z,87.26
2022-07-26T05:08:36.698Z,88.11
2022-07-26T05:09:36.661Z,87.91
2022-07-26T05:10:36.653Z,88.01
2022-07-26T05:11:36.645Z,87.81
2022-07-26T05:12:36.636Z,87.46
2022-07-26T05:13:36.661Z,86.86
2022-07-26T05:14:36.622Z,87.37
2022-07-26T05:15:36.628Z,87.06
2022-07-26T05:16:39.101Z,87.12
2022-07-26T05:17:38.611Z,85.68
2022-07-26T05:18:45.863Z,83.35
2022-07-26T05:19:37.579Z,82.27
2022-07-26T05:20:36.569Z,80.53
2022-07-26T05:21:36.577Z,81.17
2022-07-26T05:22:36.552Z,80.43
2022-07-26T05:23:36.596Z,81.07
2022-07-26T05:24:36.535Z,80.87
2022-07-26T05:25:36.530Z,80.87
2022-07-26T05:26:36.524Z,80.93
2022-07-26T05:27:36.512Z,80.77
2022-07-26T05:28:36.539Z,79.73
2022-07-26T05:29:36.497Z,78.69
2022-07-26T05:30:36.544Z,78.93
2022-07-26T05:31:36.484Z,79.23
2022-07-26T05:32:36.473Z,79.23
2022-07-26T05:33:36.482Z,79.93
2022-07-26T05:34:37.468Z,78.97
2022-07-26T05:35:36.450Z,79.86
2022-07-26T05:36:36.441Z,80.47
2022-07-26T05:37:36.427Z,80.17
2022-07-26T05:38:36.440Z,79.43
2022-07-26T05:39:37.409Z,79.43
2022-07-26T05:40:36.422Z,79.33
2022-07-26T05:41:36.404Z,79.63
2022-07-26T05:42:36.412Z,79.83
2022-07-26T05:43:41.519Z,79.53
2022-07-26T05:44:42.432Z,79.53
2022-07-26T05:45:37.441Z,79.13
2022-07-26T05:46:36.377Z,79.03
2022-07-26T05:47:36.350Z,78.59
2022-07-26T05:48:36.440Z,78.16
2022-07-26T05:49:40.213Z,78.25
2022-07-26T05:50:36.323Z,77.86
2022-07-26T05:51:36.317Z,76.58
2022-07-26T05:52:36.307Z,75.55
2022-07-26T05:53:36.324Z,76.38
2022-07-26T05:54:37.291Z,74.05
2022-07-26T05:55:36.284Z,74.02
2022-07-26T05:56:36.276Z,75.61
2022-07-26T05:57:36.266Z,73.98
2022-07-26T05:58:36.290Z,72.18
2022-07-26T05:59:36.262Z,71.02
2022-07-26T06:00:36.248Z,72.31
2022-07-26T06:01:36.236Z,70.56
2022-07-26T06:02:36.275Z,70.03
2022-07-26T06:03:36.248Z,69.20
2022-07-26T06:04:36.308Z,70.22
2022-07-26T06:05:36.203Z,69.86
2022-07-26T06:06:36.192Z,69.49
2022-07-26T06:07:36.186Z,68.90
2022-07-26T06:08:36.217Z,68.16
2022-07-26T06:09:36.171Z,68.53
2022-07-26T06:10:36.171Z,68.37
2022-07-26T06:11:36.156Z,69.06
2022-07-26T06:12:36.149Z,67.96
2022-07-26T06:13:36.174Z,68.16
2022-07-26T06:14:36.125Z,70.09
2022-07-26T06:15:36.147Z,69.76
2022-07-26T06:16:36.153Z,67.90
2022-07-26T06:17:36.145Z,67.63
2022-07-26T06:18:36.129Z,67.54
2022-07-26T06:19:37.095Z,68.16
2022-07-26T06:20:36.079Z,69.09
2022-07-26T06:21:36.073Z,69.02
2022-07-26T06:22:36.070Z,67.67
2022-07-26T06:23:36.078Z,67.17
2022-07-26T06:24:36.047Z,66.38
2022-07-26T06:25:36.043Z,67.00
2022-07-26T06:26:36.036Z,66.80
2022-07-26T06:27:36.023Z,67.33
2022-07-26T06:28:36.040Z,67.47
2022-07-26T06:29:36.010Z,67.54
2022-07-26T06:30:36.011Z,68.07
2022-07-26T06:31:36.044Z,67.27
2022-07-26T06:32:50.587Z,67.66
2022-07-26T06:33:36.008Z,69.29
2022-07-26T06:38:20.367Z,65.02
2022-07-26T06:39:20.411Z,65.68
2022-07-26T06:40:20.382Z,65.25
2022-07-26T06:41:20.377Z,64.62
2022-07-26T06:42:20.369Z,65.15
2022-07-26T06:43:20.352Z,65.12
2022-07-26T06:44:20.388Z,64.88
2022-07-26T06:45:20.331Z,66.77
2022-07-26T06:46:20.387Z,68.00
2022-07-26T06:47:20.318Z,65.75
2022-07-26T06:48:20.992Z,65.81
2022-07-26T06:49:22.729Z,64.82
2022-07-26T06:50:20.773Z,64.59
2022-07-26T06:51:21.287Z,63.83
2022-07-26T06:52:20.291Z,63.24
2022-07-26T06:53:20.271Z,62.94
2022-07-26T06:54:20.292Z,63.21
2022-07-26T06:55:20.253Z,63.28
2022-07-26T06:56:20.240Z,62.38
2022-07-26T06:57:20.236Z,62.18
2022-07-26T06:58:20.229Z,61.69
2022-07-26T06:59:20.998Z,61.89
2022-07-26T07:00:21.499Z,62.15
2022-07-26T07:01:58.659Z,63.07
2022-07-26T07:02:21.204Z,63.24
2022-07-26T07:03:20.179Z,62.58
2022-07-26T07:04:20.230Z,61.99
2022-07-26T07:05:20.247Z,61.76
2022-07-26T07:06:20.168Z,60.74
2022-07-26T07:07:20.170Z,60.37
2022-07-26T07:08:21.299Z,60.60
2022-07-26T07:09:21.309Z,60.37
2022-07-26T07:10:23.795Z,60.20
2022-07-26T07:11:21.273Z,62.97
2022-07-26T07:12:21.261Z,62.67
2022-07-26T07:13:21.256Z,61.39
2022-07-26T07:14:21.291Z,62.54
2022-07-26T07:15:21.267Z,62.12
2022-07-26T07:16:21.290Z,61.36
2022-07-26T07:17:21.228Z,59.94
2022-07-26T07:18:21.206Z,59.62
2022-07-26T07:19:21.235Z,58.87
2022-07-26T07:20:21.205Z,57.88
2022-07-26T07:21:21.194Z,57.26
2022-07-26T07:22:21.166Z,59.27
2022-07-26T07:23:22.190Z,59.06
2022-07-26T07:24:21.192Z,59.12
2022-07-26T07:25:25.747Z,59.00
2022-07-26T07:26:23.147Z,59.32
2022-07-26T07:27:21.135Z,59.97
2022-07-26T07:28:21.122Z,60.83
2022-07-26T07:29:21.168Z,60.96
2022-07-26T07:30:21.380Z,59.94
2022-07-26T07:31:23.644Z,60.44
2022-07-26T07:32:22.298Z,59.32
2022-07-26T07:33:22.308Z,60.50
2022-07-26T07:34:22.077Z,61.29
2022-07-26T07:35:22.022Z,59.89
2022-07-26T07:36:21.073Z,58.74
2022-07-26T07:37:21.053Z,58.02
2022-07-26T07:38:22.438Z,58.78
2022-07-26T07:39:22.029Z,56.75
2022-07-26T07:40:21.052Z,56.78
2022-07-26T07:41:21.025Z,55.32
2022-07-26T07:42:21.014Z,55.54
2022-07-26T07:43:21.325Z,55.40
2022-07-26T07:44:21.034Z,56.02
2022-07-26T07:45:20.985Z,57.01
2022-07-26T07:46:21.025Z,55.69
2022-07-26T07:47:20.973Z,55.66
2022-07-26T07:48:20.964Z,56.21
2022-07-26T07:49:21.041Z,56.63
2022-07-26T07:50:21.013Z,56.58
2022-07-26T07:51:20.943Z,55.27
2022-07-26T07:52:20.950Z,53.71
2022-07-26T07:53:20.932Z,53.78
2022-07-26T07:54:22.264Z,53.47
2022-07-26T07:55:36.379Z,53.47
2022-07-26T07:56:21.913Z,52.73
2022-07-26T07:57:20.900Z,53.67
2022-07-26T07:58:20.899Z,55.30
2022-07-26T07:59:20.919Z,53.79
2022-07-26T08:00:27.216Z,54.03
2022-07-26T08:01:21.927Z,53.71
2022-07-26T08:02:21.266Z,53.42
2022-07-26T08:03:20.870Z,52.50
2022-07-26T08:04:20.913Z,53.02
2022-07-26T08:05:21.655Z,55.60
2022-07-26T08:06:20.822Z,56.21
2022-07-26T08:07:20.944Z,55.37
2022-07-26T08:08:22.583Z,54.85
2022-07-26T08:09:20.840Z,55.43
2022-07-26T08:10:20.926Z,55.68
2022-07-26T08:11:20.806Z,55.83
2022-07-26T08:12:20.789Z,57.64
2022-07-26T08:13:21.706Z,56.69
2022-07-26T08:14:20.779Z,57.01
2022-07-26T08:15:21.372Z,55.00
2022-07-26T08:16:20.804Z,54.06
2022-07-26T08:17:20.741Z,53.89
2022-07-26T08:18:22.505Z,52.85
2022-07-26T08:19:20.718Z,52.21
2022-07-26T08:20:20.761Z,51.79
2022-07-26T08:21:20.713Z,51.59
2022-07-26T08:22:20.705Z,50.54
2022-07-26T08:23:20.692Z,50.85
2022-07-26T08:24:20.695Z,50.32
2022-07-26T08:25:20.712Z,50.04
2022-07-26T08:26:20.674Z,49.90
2022-07-26T08:27:20.672Z,50.73
2022-07-26T08:28:45.126Z,49.53
2022-07-26T08:29:22.658Z,48.94
2022-07-26T08:30:20.696Z,49.48
2022-07-26T08:31:20.705Z,50.83
2022-07-26T08:32:35.613Z,50.37
2022-07-26T08:33:20.631Z,50.83
2022-07-26T08:34:20.633Z,50.46
2022-07-26T08:35:20.631Z,49.41
2022-07-26T08:36:20.592Z,50.42
2022-07-26T08:37:20.593Z,50.61
2022-07-26T08:38:20.573Z,49.21
2022-07-26T08:39:20.566Z,50.12
2022-07-26T08:40:20.601Z,53.22
2022-07-26T08:41:20.545Z,54.27
2022-07-26T08:42:22.556Z,54.81
2022-07-26T08:43:20.556Z,56.23
2022-07-26T08:44:20.523Z,57.24
2022-07-26T08:45:20.584Z,56.32
2022-07-26T08:46:24.779Z,56.25
2022-07-26T08:47:37.461Z,57.40
2022-07-26T08:48:21.489Z,58.75
2022-07-26T08:49:20.521Z,58.46
2022-07-26T08:50:20.511Z,57.43
2022-07-26T08:51:20.588Z,52.98
2022-07-26T08:52:20.474Z,52.85
2022-07-26T08:53:20.453Z,50.19
2022-07-26T08:54:20.443Z,50.44
2022-07-26T08:55:20.473Z,51.10
2022-07-26T08:56:20.433Z,49.97
2022-07-26T08:57:20.423Z,49.01
2022-07-26T08:58:20.429Z,48.99
2022-07-26T08:59:21.711Z,47.47
2022-07-26T09:00:21.438Z,47.59
2022-07-26T09:01:20.588Z,47.10
2022-07-26T09:02:20.389Z,48.25
2022-07-26T09:03:20.431Z,50.73
2022-07-26T09:04:30.850Z,52.56
2022-07-26T09:05:22.408Z,53.52
2022-07-26T09:06:20.350Z,55.05
2022-07-26T09:07:20.355Z,55.51
2022-07-26T09:08:20.348Z,55.33
2022-07-26T09:09:20.329Z,55.88
2022-07-26T09:10:20.372Z,57.40
2022-07-26T09:11:20.329Z,58.54
2022-07-26T09:12:20.310Z,60.52
2022-07-26T09:13:20.299Z,61.34
2022-07-26T09:14:20.425Z,61.96
2022-07-26T09:15:20.325Z,63.49
2022-07-26T09:16:20.296Z,63.79
2022-07-26T09:17:20.278Z,63.59
2022-07-26T09:18:20.273Z,63.52
2022-07-26T09:19:20.261Z,63.72
2022-07-26T09:20:24.100Z,63.72
2022-07-26T09:21:21.274Z,64.51
2022-07-26T09:22:20.234Z,63.89
2022-07-26T09:23:20.226Z,63.39
2022-07-26T09:24:20.222Z,64.55
2022-07-26T09:25:20.243Z,63.66
2022-07-26T09:26:20.204Z,63.76
2022-07-26T09:27:21.082Z,63.33
2022-07-26T09:28:20.185Z,63.46
2022-07-26T09:29:20.183Z,63.82
2022-07-26T09:30:20.206Z,63.53
2022-07-26T09:31:20.202Z,63.63
2022-07-26T09:32:20.156Z,60.70
2022-07-26T09:33:20.140Z,57.41
2022-07-26T09:34:20.330Z,57.10
2022-07-26T09:35:50.610Z,55.24
2022-07-26T09:36:22.116Z,53.86
2022-07-26T09:37:20.114Z,54.09
2022-07-26T09:38:20.098Z,56.04
2022-07-26T09:39:27.796Z,56.19
2022-07-26T09:40:21.119Z,55.26
2022-07-26T09:41:20.531Z,51.89
2022-07-26T09:42:28.466Z,51.10
2022-07-26T09:43:24.403Z,53.12
2022-07-26T09:44:20.057Z,51.94
2022-07-26T09:45:20.044Z,53.89
2022-07-26T09:46:20.242Z,55.13
2022-07-26T09:47:20.030Z,56.21
2022-07-26T09:48:20.022Z,55.40
2022-07-26T09:49:20.084Z,56.04
2022-07-26T09:50:20.099Z,55.33
2022-07-26T09:51:20.029Z,55.03
2022-07-26T09:52:21.020Z,55.47
2022-07-26T09:53:19.984Z,56.97
2022-07-26T09:54:20.987Z,57.79
2022-07-26T09:55:19.967Z,58.51
2022-07-26T09:56:19.995Z,58.32
2022-07-26T09:57:19.947Z,58.19
2022-07-26T09:58:21.012Z,58.12
2022-07-26T09:59:19.943Z,58.42
2022-07-26T10:00:19.929Z,57.99
2022-07-26T10:01:19.971Z,58.78
2022-07-26T10:02:19.919Z,58.19
2022-07-26T10:03:19.938Z,57.86
2022-07-26T10:04:19.898Z,56.82
2022-07-26T10:05:19.887Z,56.92
2022-07-26T10:06:19.913Z,56.49
2022-07-26T10:07:19.890Z,56.40
2022-07-26T10:08:19.869Z,57.71
2022-07-26T10:09:19.866Z,56.45
2022-07-26T10:10:19.847Z,57.97
2022-07-26T10:11:19.901Z,58.69
2022-07-26T10:12:19.835Z,59.21
2022-07-26T10:13:19.834Z,59.11
2022-07-26T10:14:19.813Z,58.84
2022-07-26T10:15:19.824Z,59.76
2022-07-26T10:16:20.682Z,59.39
2022-07-26T10:17:19.803Z,60.09
2022-07-26T10:18:19.787Z,60.68
2022-07-26T10:19:19.775Z,61.27
2022-07-26T10:20:24.554Z,61.80
2022-07-26T10:21:20.779Z,62.69
2022-07-26T10:22:19.761Z,61.90
2022-07-26T10:23:19.740Z,62.19
2022-07-26T10:24:19.737Z,61.90
2022-07-26T10:25:20.717Z,61.87
2022-07-26T10:26:20.744Z,61.80
2022-07-26T10:27:19.717Z,62.16
2022-07-26T10:28:19.703Z,62.59
2022-07-26T10:29:19.706Z,61.90
2022-07-26T10:30:19.710Z,62.10
2022-07-26T10:31:19.772Z,62.89
2022-07-26T10:32:19.688Z,62.69
2022-07-26T10:33:19.665Z,61.69
2022-07-26T10:34:19.658Z,62.19
2022-07-26T10:35:19.646Z,61.90
2022-07-26T10:36:19.718Z,61.60
2022-07-26T10:37:19.642Z,61.96
2022-07-26T10:38:19.649Z,61.80
2022-07-26T10:39:19.625Z,61.69
2022-07-26T10:40:19.613Z,61.67
2022-07-26T10:41:19.757Z,61.77
2022-07-26T10:42:19.597Z,61.14
2022-07-26T10:44:21.569Z,60.94
2022-07-26T10:45:19.585Z,60.84
2022-07-26T10:46:19.664Z,61.04
2022-07-26T10:47:19.553Z,60.61
2022-07-26T10:48:19.549Z,61.04
2022-07-26T10:49:19.599Z,61.14
2022-07-26T10:50:19.533Z,61.64
2022-07-26T10:51:19.546Z,61.14
2022-07-26T10:52:19.512Z,61.27
2022-07-26T10:53:19.502Z,62.29
2022-07-26T10:54:19.483Z,62.59
2022-07-26T10:55:20.490Z,62.79
2022-07-26T10:56:19.518Z,63.32
2022-07-26T10:57:19.475Z,63.82
2022-07-26T10:58:19.467Z,64.54
2022-07-26T10:59:39.158Z,64.15
2022-07-26T11:00:21.457Z,64.54
2022-07-26T11:01:19.522Z,64.34
2022-07-26T11:02:19.473Z,64.94
2022-07-26T11:03:19.482Z,65.37
2022-07-26T11:04:19.425Z,65.08
2022-07-26T11:05:19.402Z,65.37
2022-07-26T11:06:19.395Z,64.94
2022-07-26T11:07:19.423Z,65.34
2022-07-26T11:08:19.386Z,65.17
2022-07-26T11:09:20.930Z,65.24
2022-07-26T11:10:19.363Z,65.87
2022-07-26T11:11:19.359Z,65.74
2022-07-26T11:12:19.381Z,65.64
2022-07-26T11:13:19.338Z,64.61
2022-07-26T11:14:19.338Z,65.11
2022-07-26T11:15:19.318Z,65.31
2022-07-26T11:16:19.501Z,64.39
2022-07-26T11:17:19.362Z,65.28
2022-07-26T11:18:19.294Z,64.55
2022-07-26T11:19:19.289Z,63.13
2022-07-26T11:20:19.282Z,63.33
2022-07-26T11:21:19.267Z,63.43
2022-07-26T11:22:20.296Z,64.09
2022-07-26T11:23:19.252Z,63.30
2022-07-26T11:24:19.246Z,61.88
2022-07-26T11:25:19.240Z,61.35
2022-07-26T11:26:19.224Z,60.83
2022-07-26T11:27:19.241Z,60.30
2022-07-26T11:28:19.215Z,61.07
2022-07-26T11:29:22.623Z,60.64
2022-07-26T11:30:19.194Z,60.14
2022-07-26T11:31:20.040Z,59.48
2022-07-26T11:32:19.388Z,59.88
2022-07-26T11:33:19.172Z,59.38
2022-07-26T11:34:19.165Z,59.21
2022-07-26T11:35:19.167Z,59.96
2022-07-26T11:36:19.148Z,60.82
2022-07-26T11:37:19.174Z,61.61
2022-07-26T11:38:19.126Z,61.71
2022-07-26T11:39:19.115Z,61.54
2022-07-26T11:40:19.123Z,61.61
2022-07-26T11:41:19.110Z,61.51
2022-07-26T11:42:19.121Z,61.68
2022-07-26T11:43:19.091Z,61.08
2022-07-26T11:44:19.096Z,61.28
2022-07-26T11:45:19.086Z,61.68
2022-07-26T11:46:19.133Z,61.78
2022-07-26T11:47:19.090Z,61.38
2022-07-26T11:48:19.050Z,61.61
2022-07-26T11:49:19.142Z,62.10
2022-07-26T11:50:23.144Z,62.56
2022-07-26T11:51:20.022Z,63.85
2022-07-26T11:52:24.348Z,62.86
2022-07-26T11:53:20.122Z,62.73
2022-07-26T11:54:19.003Z,62.53
2022-07-26T11:55:19.000Z,61.94
2022-07-26T11:56:18.979Z,61.94
2022-07-26T11:57:19.017Z,61.71
2022-07-26T11:58:18.976Z,62.53
2022-07-26T11:59:18.974Z,62.50
2022-07-26T12:00:18.952Z,61.58
2022-07-26T12:01:18.942Z,61.38
2022-07-26T12:02:18.970Z,61.48
2022-07-26T12:03:18.922Z,62.57
2022-07-26T12:04:19.023Z,61.35
2022-07-26T12:05:19.518Z,61.94
2022-07-26T12:06:18.974Z,61.88
2022-07-26T12:07:18.938Z,61.38
2022-07-26T12:08:18.878Z,61.98
2022-07-26T12:09:18.881Z,61.68
2022-07-26T12:10:18.862Z,61.85
2022-07-26T12:11:18.854Z,61.35
2022-07-26T12:12:18.882Z,61.45
2022-07-26T12:13:18.836Z,60.96
2022-07-26T12:14:19.093Z,61.62
2022-07-26T12:15:18.826Z,60.43
2022-07-26T12:16:18.851Z,60.20
2022-07-26T12:17:18.844Z,60.00
2022-07-26T12:18:18.820Z,60.17
2022-07-26T12:19:19.328Z,60.27
2022-07-26T12:20:18.776Z,60.07
2022-07-26T12:21:18.764Z,59.58
2022-07-26T12:22:19.787Z,59.67
2022-07-26T12:23:19.763Z,59.88
2022-07-26T12:24:18.750Z,59.97
2022-07-26T12:25:18.749Z,60.20
2022-07-26T12:26:18.728Z,60.37
2022-07-26T12:27:18.726Z,60.54
2022-07-26T12:28:18.741Z,59.52
2022-07-26T12:29:18.715Z,59.03
2022-07-26T12:30:18.698Z,59.81
2022-07-26T12:31:18.757Z,59.81
2022-07-26T12:32:18.694Z,59.15
2022-07-26T12:33:18.704Z,59.55
2022-07-26T12:34:18.662Z,59.84
2022-07-26T12:35:18.653Z,59.45
2022-07-26T12:36:18.642Z,59.32
2022-07-26T12:37:19.640Z,59.45
2022-07-26T12:38:18.658Z,59.84
2022-07-26T12:39:18.617Z,59.88
2022-07-26T12:40:18.609Z,60.47
2022-07-26T12:41:18.611Z,60.57
2022-07-26T12:42:21.264Z,60.80
2022-07-26T12:43:19.621Z,61.42
2022-07-26T12:44:18.585Z,61.32
2022-07-26T12:45:18.581Z,61.62
2022-07-26T12:46:18.651Z,61.35
2022-07-26T12:47:18.567Z,62.27
2022-07-26T12:48:18.579Z,62.37
2022-07-26T12:49:18.606Z,63.00
2022-07-26T12:50:18.526Z,63.10
2022-07-26T12:51:19.522Z,63.49
2022-07-26T12:52:18.527Z,63.20
2022-07-26T12:53:18.540Z,63.30
2022-07-26T12:54:18.500Z,63.40
2022-07-26T12:55:18.496Z,63.60
2022-07-26T12:56:18.481Z,62.67
2022-07-26T12:57:18.473Z,63.17